Time;durP1;ratioP1;P1;durP2;ratioP2;P2;SDS_P1;SDS_P2;PMS_P1;PMS_P2;Temp;Humidity;BMP_temperature;BMP_pressure;BME280_temperature;BME280_humidity;BME280_pressure;Samples;Min_cycle;Max_cycle;Signal;HPM_P1;HPM_P2
2022/10/30 06:45:06;;;;;;;29.35;18.20;;;14.10;99.90;;;;;;5104839;27;20642;-84
2022/10/30 06:47:55;;;;;;;28.55;17.92;;;14.20;99.90;;;;;;5072085;27;20226;-88
2022/10/30 06:50:45;;;;;;;29.92;17.75;;;14.10;99.90;;;;;;5073825;27;20234;-88
2022/10/30 06:53:34;;;;;;;25.10;18.00;;;14.20;99.90;;;;;;5072394;28;20215;-87
2022/10/30 06:56:43;;;;;;;28.65;18.02;;;14.20;99.90;;;;;;5082483;27;20469;-82
2022/10/30 06:59:31;;;;;;;26.45;18.05;;;14.20;99.90;;;;;;5079537;27;20242;-86
2022/10/30 07:02:45;;;;;;;32.53;18.65;;;14.20;99.90;;;;;;5086669;27;20223;-91
2022/10/30 07:05:34;;;;;;;27.92;18.50;;;14.30;99.90;;;;;;5078825;28;20758;-83
2022/10/30 07:08:23;;;;;;;26.85;18.92;;;14.30;99.90;;;;;;5077278;28;20218;-83
2022/10/30 07:11:12;;;;;;;31.35;20.05;;;14.40;99.90;;;;;;5064742;28;20223;-83
2022/10/30 07:14:16;;;;;;;28.42;19.25;;;14.40;99.90;;;;;;5097042;27;20284;-82
2022/10/30 07:17:14;;;;;;;25.67;18.98;;;14.40;99.90;;;;;;5077792;28;20330;-87
2022/10/30 07:20:11;;;;;;;30.65;19.98;;;14.40;99.90;;;;;;5084336;28;20286;-89
2022/10/30 07:23:01;;;;;;;29.45;18.55;;;14.40;99.90;;;;;;5037843;28;20220;-84
2022/10/30 07:25:50;;;;;;;26.33;19.42;;;14.50;99.90;;;;;;5050703;28;20286;-83
2022/10/30 07:28:44;;;;;;;32.30;19.00;;;14.50;99.90;;;;;;5058677;28;20232;-88
2022/10/30 07:31:53;;;;;;;28.20;18.27;;;14.50;99.90;;;;;;5077595;28;20231;-87
2022/10/30 07:34:55;;;;;;;27.15;19.40;;;14.50;99.90;;;;;;5064343;28;20242;-83
2022/10/30 07:38:13;;;;;;;29.50;19.85;;;14.60;99.90;;;;;;5040356;28;20220;-85
2022/10/30 07:41:24;;;;;;;27.50;18.55;;;14.60;99.90;;;;;;5070362;28;20246;-91
2022/10/30 07:44:33;;;;;;;29.27;19.60;;;14.70;99.90;;;;;;5059070;28;20227;-80
2022/10/30 07:47:43;;;;;;;28.15;18.02;;;14.80;99.90;;;;;;5047710;28;20238;-81
2022/10/30 07:50:38;;;;;;;28.92;18.23;;;14.90;99.90;;;;;;5055692;28;20222;-74
2022/10/30 07:53:29;;;;;;;26.35;17.45;;;14.90;99.90;;;;;;5075057;28;21167;-80
2022/10/30 07:56:18;;;;;;;26.35;16.58;;;14.90;99.90;;;;;;5065986;28;20302;-81
2022/10/30 07:59:12;;;;;;;27.65;18.67;;;14.90;99.90;;;;;;5050361;28;20216;-79
2022/10/30 08:02:20;;;;;;;27.83;17.02;;;14.90;99.90;;;;;;5045146;28;20233;-83
2022/10/30 08:05:32;;;;;;;26.65;17.20;;;14.90;99.90;;;;;;5030530;28;20220;-83
2022/10/30 08:08:31;;;;;;;27.60;17.17;;;14.90;99.90;;;;;;5026531;28;20229;-80
2022/10/30 08:11:49;;;;;;;24.05;16.55;;;15.00;99.90;;;;;;5043384;28;20217;-80
2022/10/30 08:14:38;;;;;;;26.75;17.35;;;15.00;99.90;;;;;;5029543;28;20224;-86
2022/10/30 08:17:27;;;;;;;23.35;17.10;;;15.00;99.90;;;;;;5055460;28;20236;-81
2022/10/30 08:20:18;;;;;;;23.27;16.58;;;15.00;99.90;;;;;;5048511;28;20228;-81
2022/10/30 08:23:09;;;;;;;22.23;16.08;;;15.10;99.90;;;;;;5029623;28;20326;-82
2022/10/30 08:26:00;;;;;;;25.02;16.83;;;15.20;99.90;;;;;;5040721;28;20541;-81
2022/10/30 08:28:50;;;;;;;23.83;16.63;;;15.30;99.90;;;;;;5032346;28;20236;-81
2022/10/30 08:31:39;;;;;;;23.77;16.80;;;15.30;99.90;;;;;;5047817;28;20221;-81
2022/10/30 08:34:43;;;;;;;25.55;17.08;;;15.40;99.90;;;;;;5042615;28;20221;-81
2022/10/30 08:37:32;;;;;;;23.77;17.00;;;15.40;99.90;;;;;;5056534;28;20216;-81
2022/10/30 08:40:20;;;;;;;25.35;16.75;;;15.40;99.90;;;;;;5036901;28;20244;-80
2022/10/30 08:43:19;;;;;;;25.63;16.30;;;15.50;99.90;;;;;;5032675;28;20231;-79
2022/10/30 08:46:08;;;;;;;24.20;17.10;;;15.50;99.90;;;;;;5063496;28;20217;-81
2022/10/30 08:48:57;;;;;;;24.80;16.30;;;15.40;99.90;;;;;;5029482;28;20225;-81
2022/10/30 08:51:45;;;;;;;25.48;16.55;;;15.40;99.90;;;;;;5022719;28;20244;-81
2022/10/30 08:54:34;;;;;;;21.75;16.45;;;15.40;99.90;;;;;;5028307;28;20676;-80
2022/10/30 08:57:23;;;;;;;24.92;17.48;;;15.40;99.90;;;;;;5031045;28;20227;-81
2022/10/30 09:00:15;;;;;;;23.42;16.75;;;15.50;99.90;;;;;;5057718;28;20236;-81
2022/10/30 09:03:22;;;;;;;26.40;17.27;;;15.50;99.90;;;;;;5046009;28;20319;-81
2022/10/30 09:06:17;;;;;;;23.58;15.88;;;15.60;99.90;;;;;;5044464;28;20240;-81
2022/10/30 09:09:24;;;;;;;26.30;16.70;;;15.50;99.90;;;;;;5049619;28;20596;-81
2022/10/30 09:12:17;;;;;;;23.40;17.73;;;15.60;99.90;;;;;;5034118;28;20347;-81
2022/10/30 09:15:08;;;;;;;25.83;16.88;;;15.60;99.90;;;;;;5036748;28;20660;-80
2022/10/30 09:18:10;;;;;;;24.30;15.52;;;15.50;99.90;;;;;;5044007;28;20571;-80
2022/10/30 09:20:59;;;;;;;24.65;15.98;;;15.60;99.90;;;;;;5031060;28;20228;-81
2022/10/30 09:23:55;;;;;;;27.00;16.02;;;15.60;99.90;;;;;;5037143;28;20217;-81
2022/10/30 09:26:56;;;;;;;22.95;15.70;;;15.50;99.90;;;;;;5048736;28;20628;-80
2022/10/30 09:29:46;;;;;;;21.23;15.85;;;15.60;99.90;;;;;;5024634;28;20771;-80
2022/10/30 09:32:41;;;;;;;22.50;15.88;;;15.50;99.90;;;;;;5059659;28;20281;-80
2022/10/30 09:35:38;;;;;;;25.52;16.30;;;15.50;99.90;;;;;;5037552;28;20246;-81
2022/10/30 09:38:28;;;;;;;21.58;15.00;;;15.50;99.90;;;;;;5030803;28;20711;-81
2022/10/30 09:41:29;;;;;;;24.38;15.77;;;15.50;99.90;;;;;;5064770;28;20240;-81
2022/10/30 09:44:28;;;;;;;22.45;14.65;;;15.50;99.90;;;;;;5044094;28;20951;-81
2022/10/30 09:47:26;;;;;;;22.55;15.30;;;15.60;99.90;;;;;;5037798;28;20703;-81
2022/10/30 09:50:25;;;;;;;23.15;15.25;;;15.60;99.90;;;;;;5032487;28;20267;-81
2022/10/30 09:53:29;;;;;;;20.42;15.85;;;15.70;99.90;;;;;;5052377;28;20217;-81
2022/10/30 09:56:27;;;;;;;27.00;16.02;;;15.80;99.90;;;;;;5032254;28;20258;-81
2022/10/30 09:59:30;;;;;;;22.73;13.93;;;15.90;99.90;;;;;;5033686;28;20227;-81
2022/10/30 10:02:32;;;;;;;22.23;13.82;;;15.90;99.90;;;;;;5030655;28;20287;-81
2022/10/30 10:05:24;;;;;;;20.55;12.70;;;15.80;99.90;;;;;;5030172;28;20224;-81
2022/10/30 10:08:40;;;;;;;17.13;12.68;;;15.80;99.90;;;;;;5047592;28;20251;-81
2022/10/30 10:11:51;;;;;;;22.15;13.00;;;15.80;99.90;;;;;;5041383;28;20966;-81
2022/10/30 10:14:43;;;;;;;16.77;11.90;;;15.80;99.90;;;;;;5042804;28;20228;-82
2022/10/30 10:17:35;;;;;;;22.05;12.82;;;15.90;99.90;;;;;;5034063;28;20228;-82
2022/10/30 10:20:30;;;;;;;16.75;11.18;;;16.00;99.90;;;;;;5027863;28;20223;-81
2022/10/30 10:23:20;;;;;;;18.17;12.00;;;16.10;99.90;;;;;;5044595;28;20267;-82
2022/10/30 10:26:27;;;;;;;20.33;11.07;;;16.10;99.90;;;;;;5048104;28;22759;-81
2022/10/30 10:29:34;;;;;;;20.58;11.60;;;16.10;99.90;;;;;;5049495;28;20221;-81
2022/10/30 10:32:49;;;;;;;19.35;10.65;;;16.20;99.90;;;;;;5059587;28;20224;-83
2022/10/30 10:35:53;;;;;;;19.25;11.32;;;16.20;99.90;;;;;;5043665;28;20715;-83
2022/10/30 10:38:57;;;;;;;14.50;10.98;;;16.10;99.90;;;;;;5050591;28;20307;-83
2022/10/30 10:41:58;;;;;;;16.35;10.43;;;16.10;99.90;;;;;;5059114;28;20220;-80
2022/10/30 10:44:59;;;;;;;17.63;9.88;;;16.20;99.90;;;;;;5056611;28;20227;-82
2022/10/30 10:48:33;;;;;;;16.77;8.95;;;16.40;99.90;;;;;;5047939;28;20224;-81
2022/10/30 10:51:26;;;;;;;14.18;8.50;;;16.40;99.90;;;;;;5061866;28;20225;-79
2022/10/30 10:54:21;;;;;;;14.88;8.88;;;16.40;99.90;;;;;;5051990;28;20290;-81
2022/10/30 10:57:18;;;;;;;13.15;8.32;;;16.40;99.90;;;;;;5035977;28;20290;-80
2022/10/30 11:00:14;;;;;;;10.10;7.55;;;16.30;99.90;;;;;;5033502;28;20221;-82
2022/10/30 11:03:09;;;;;;;12.38;7.75;;;16.20;99.90;;;;;;5026392;28;20244;-79
2022/10/30 11:06:03;;;;;;;14.25;7.93;;;16.30;99.90;;;;;;5055233;28;20543;-80
2022/10/30 11:09:00;;;;;;;13.52;8.13;;;16.30;99.90;;;;;;5057092;28;20232;-81
2022/10/30 11:11:50;;;;;;;11.13;7.57;;;16.30;99.90;;;;;;5040126;28;20225;-80
2022/10/30 11:14:41;;;;;;;13.20;8.20;;;16.20;99.90;;;;;;5034785;28;20707;-80
2022/10/30 11:17:38;;;;;;;12.32;8.85;;;16.10;99.90;;;;;;5038438;28;20730;-80
2022/10/30 11:20:35;;;;;;;14.10;8.88;;;16.00;99.90;;;;;;5041838;28;20225;-80
2022/10/30 11:23:38;;;;;;;12.40;8.43;;;15.90;99.90;;;;;;5047090;28;20229;-81
2022/10/30 11:26:32;;;;;;;13.77;8.45;;;15.80;99.90;;;;;;5041252;28;20233;-82
2022/10/30 11:29:24;;;;;;;13.40;7.40;;;15.90;99.90;;;;;;5044299;28;20695;-81
2022/10/30 11:32:21;;;;;;;11.10;6.95;;;15.80;99.90;;;;;;5062829;28;20490;-81
2022/10/30 11:35:14;;;;;;;11.10;6.60;;;15.70;99.90;;;;;;5043518;28;20235;-81
2022/10/30 11:38:19;;;;;;;12.57;6.68;;;15.70;99.90;;;;;;5042746;28;20216;-81
2022/10/30 11:41:09;;;;;;;8.18;6.07;;;15.70;99.90;;;;;;5041385;28;20611;-81
2022/10/30 11:43:58;;;;;;;9.13;5.75;;;15.70;99.90;;;;;;5044700;28;20926;-80
2022/10/30 11:46:47;;;;;;;8.43;6.10;;;15.70;99.90;;;;;;5063006;28;20229;-80
2022/10/30 11:49:46;;;;;;;10.52;6.07;;;15.70;99.90;;;;;;5062566;28;20554;-80
2022/10/30 11:52:38;;;;;;;16.00;6.88;;;15.80;99.90;;;;;;5031165;28;20221;-81
2022/10/30 11:55:32;;;;;;;9.10;6.47;;;15.80;99.90;;;;;;5043433;28;20300;-81
2022/10/30 11:58:26;;;;;;;16.17;7.40;;;15.80;99.90;;;;;;5068063;28;20221;-80
2022/10/30 12:01:22;;;;;;;11.32;7.05;;;15.80;99.90;;;;;;5046921;28;20236;-81
2022/10/30 12:04:16;;;;;;;10.63;8.10;;;15.80;99.90;;;;;;5041215;28;20259;-81
2022/10/30 12:07:19;;;;;;;9.50;7.10;;;15.90;99.90;;;;;;5029920;28;20333;-82
2022/10/30 12:10:24;;;;;;;11.95;7.65;;;16.00;99.90;;;;;;5056162;28;20228;-81
2022/10/30 12:13:16;;;;;;;10.98;8.30;;;16.00;99.90;;;;;;5043578;28;20251;-80
2022/10/30 12:16:16;;;;;;;10.85;8.50;;;16.00;99.90;;;;;;5061617;28;20233;-80
2022/10/30 12:19:08;;;;;;;9.15;7.72;;;16.10;99.90;;;;;;5032030;28;20220;-81
2022/10/30 12:22:00;;;;;;;12.18;7.95;;;16.10;99.90;;;;;;5048426;28;20225;-81
2022/10/30 12:24:50;;;;;;;8.95;7.75;;;16.20;99.90;;;;;;5036181;28;20224;-81
2022/10/30 12:27:39;;;;;;;11.93;7.05;;;16.10;99.90;;;;;;5061817;28;20233;-81
2022/10/30 12:30:30;;;;;;;13.32;7.97;;;16.20;99.90;;;;;;5052800;28;20224;-81
2022/10/30 12:33:25;;;;;;;28.10;8.77;;;16.20;99.90;;;;;;5060012;28;20734;-81
2022/10/30 12:36:17;;;;;;;13.10;7.47;;;16.20;99.90;;;;;;5036297;28;20244;-81
2022/10/30 12:39:14;;;;;;;9.35;7.15;;;16.30;99.90;;;;;;5045869;28;20283;-81
2022/10/30 12:42:11;;;;;;;10.20;7.40;;;16.30;99.90;;;;;;5043866;28;20989;-81
2022/10/30 12:45:12;;;;;;;10.02;7.32;;;16.30;99.90;;;;;;5048025;28;20334;-81
2022/10/30 12:48:03;;;;;;;10.68;7.15;;;16.30;99.90;;;;;;5039221;28;20879;-81
2022/10/30 12:51:03;;;;;;;11.80;7.50;;;16.40;99.90;;;;;;5034700;28;20220;-81
2022/10/30 12:53:59;;;;;;;18.17;7.30;;;16.30;99.90;;;;;;5028810;28;20255;-81
2022/10/30 12:56:51;;;;;;;14.75;7.28;;;16.20;99.90;;;;;;5048835;28;20328;-81
2022/10/30 12:59:50;;;;;;;8.02;7.22;;;16.10;99.90;;;;;;5047874;28;20266;-82
2022/10/30 13:02:50;;;;;;;8.55;6.75;;;16.10;99.90;;;;;;5050915;28;20778;-81
2022/10/30 13:05:45;;;;;;;9.68;6.78;;;16.20;99.90;;;;;;5048989;28;20726;-81
2022/10/30 13:08:38;;;;;;;9.32;6.75;;;16.20;99.90;;;;;;5039406;28;20358;-81
2022/10/30 13:11:36;;;;;;;17.30;7.22;;;16.20;99.90;;;;;;5057469;28;20217;-81
2022/10/30 13:14:31;;;;;;;14.13;7.45;;;16.20;99.90;;;;;;5043379;28;20592;-81
2022/10/30 13:17:21;;;;;;;11.32;7.15;;;16.20;99.90;;;;;;5036779;28;20231;-81
2022/10/30 13:20:14;;;;;;;8.45;7.25;;;16.20;99.90;;;;;;5058720;28;20359;-82
2022/10/30 13:23:08;;;;;;;8.00;7.00;;;16.20;99.90;;;;;;5030520;28;20225;-81
2022/10/30 13:26:07;;;;;;;7.80;7.00;;;16.20;99.90;;;;;;5051063;28;20229;-81
2022/10/30 13:29:04;;;;;;;11.95;6.70;;;16.10;99.90;;;;;;5022503;28;20232;-81
2022/10/30 13:32:06;;;;;;;8.18;6.88;;;16.20;99.90;;;;;;5033742;28;20241;-82
2022/10/30 13:35:02;;;;;;;8.48;6.25;;;16.20;99.90;;;;;;5039512;28;20459;-80
2022/10/30 13:37:59;;;;;;;9.23;6.78;;;16.20;99.90;;;;;;5041224;28;20224;-81
2022/10/30 13:40:54;;;;;;;7.35;5.82;;;16.20;99.90;;;;;;5037842;28;20224;-81
2022/10/30 13:43:51;;;;;;;6.45;5.72;;;16.10;99.90;;;;;;5062378;28;20229;-81
2022/10/30 13:46:58;;;;;;;7.68;5.47;;;16.10;99.90;;;;;;5055504;28;20767;-81
2022/10/30 13:50:02;;;;;;;6.93;5.05;;;16.00;99.90;;;;;;5046266;28;20676;-80
2022/10/30 13:52:55;;;;;;;6.28;4.40;;;16.00;99.90;;;;;;5029222;28;20492;-80
2022/10/30 13:55:45;;;;;;;10.13;4.60;;;15.90;99.90;;;;;;5048558;28;20588;-81
2022/10/30 13:58:39;;;;;;;6.80;4.70;;;15.90;99.90;;;;;;5037261;28;20216;-81
2022/10/30 14:01:35;;;;;;;6.80;4.13;;;16.00;99.90;;;;;;5047400;28;20228;-80
2022/10/30 14:04:30;;;;;;;7.60;4.00;;;15.90;99.90;;;;;;5048217;28;20227;-81
2022/10/30 14:07:28;;;;;;;4.47;3.60;;;15.90;99.90;;;;;;5048706;28;20704;-81
2022/10/30 14:10:31;;;;;;;6.78;3.58;;;15.80;99.90;;;;;;5044917;28;20947;-81
2022/10/30 14:13:35;;;;;;;4.90;3.70;;;15.80;99.90;;;;;;5030709;28;20225;-81
2022/10/30 14:16:41;;;;;;;5.20;3.90;;;15.80;99.90;;;;;;5030779;28;20220;-81
2022/10/30 14:19:30;;;;;;;5.22;3.80;;;15.80;99.90;;;;;;5058539;28;20923;-81
2022/10/30 14:22:24;;;;;;;6.13;3.67;;;15.70;99.90;;;;;;5047806;28;20307;-81
2022/10/30 14:25:14;;;;;;;10.15;3.60;;;15.60;99.90;;;;;;5044334;28;20223;-82
2022/10/30 14:28:04;;;;;;;4.65;3.90;;;15.60;99.90;;;;;;5047628;28;20634;-82
2022/10/30 14:31:02;;;;;;;7.53;4.00;;;15.70;99.90;;;;;;5043783;28;20315;-81
2022/10/30 14:33:52;;;;;;;4.72;3.85;;;15.60;99.90;;;;;;5025471;28;20229;-83
2022/10/30 14:36:50;;;;;;;6.38;4.15;;;15.60;99.90;;;;;;5043933;28;20303;-82
2022/10/30 14:39:43;;;;;;;5.18;4.20;;;15.60;99.90;;;;;;5045251;28;20220;-82
2022/10/30 14:42:39;;;;;;;4.85;4.20;;;15.60;99.90;;;;;;5024998;28;20225;-82
2022/10/30 14:45:32;;;;;;;8.95;4.80;;;15.60;99.90;;;;;;5048864;28;20769;-82
2022/10/30 14:48:26;;;;;;;6.13;4.45;;;15.60;99.90;;;;;;5040483;28;20225;-82
2022/10/30 14:51:22;;;;;;;6.20;5.03;;;15.60;99.90;;;;;;5057074;28;20224;-82
2022/10/30 14:54:18;;;;;;;9.48;6.15;;;15.50;99.90;;;;;;5029591;28;20613;-82
2022/10/30 14:57:21;;;;;;;7.85;5.35;;;15.50;99.90;;;;;;5031093;28;20213;-82
2022/10/30 15:00:42;;;;;;;7.78;5.22;;;15.40;99.90;;;;;;5046425;28;20239;-81
2022/10/30 15:03:43;;;;;;;9.77;5.30;;;15.40;99.90;;;;;;5043899;28;20576;-80
2022/10/30 15:06:41;;;;;;;8.18;5.57;;;15.40;99.90;;;;;;5045959;28;21107;-81
2022/10/30 15:09:44;;;;;;;7.90;5.85;;;15.40;99.90;;;;;;5037856;28;20216;-82
2022/10/30 15:12:48;;;;;;;10.88;5.78;;;15.40;99.90;;;;;;5038950;28;20623;-81
2022/10/30 15:15:36;;;;;;;10.15;5.80;;;15.30;99.90;;;;;;5036905;28;20216;-81
2022/10/30 15:18:26;;;;;;;11.10;6.20;;;15.30;99.90;;;;;;5045508;28;20967;-81
2022/10/30 15:21:22;;;;;;;13.25;6.05;;;15.20;99.90;;;;;;5025232;28;20236;-81
2022/10/30 15:24:15;;;;;;;12.02;6.47;;;15.20;99.90;;;;;;5064467;28;20220;-80
2022/10/30 15:27:05;;;;;;;11.93;5.55;;;15.30;99.90;;;;;;5047378;28;20231;-80
2022/10/30 15:30:00;;;;;;;9.15;6.25;;;15.20;99.90;;;;;;5037448;28;20326;-82
2022/10/30 15:32:49;;;;;;;12.13;6.30;;;15.20;99.90;;;;;;5049814;28;20243;-81
2022/10/30 15:35:46;;;;;;;11.23;6.47;;;15.20;99.90;;;;;;5054624;28;20329;-81
2022/10/30 15:38:35;;;;;;;9.38;6.40;;;15.20;99.90;;;;;;5056284;28;20217;-81
2022/10/30 15:41:24;;;;;;;11.45;6.45;;;15.20;99.90;;;;;;5034272;28;20227;-80
2022/10/30 15:44:15;;;;;;;13.40;7.30;;;15.20;99.90;;;;;;5046353;28;20247;-81
2022/10/30 15:47:15;;;;;;;12.18;7.05;;;15.20;99.90;;;;;;5056297;28;20281;-81
2022/10/30 15:50:05;;;;;;;13.35;7.20;;;15.10;99.90;;;;;;5034417;28;20229;-80
2022/10/30 15:52:54;;;;;;;13.65;6.90;;;15.10;99.90;;;;;;5044297;28;20264;-78
2022/10/30 15:55:43;;;;;;;10.60;6.55;;;15.10;99.90;;;;;;5048500;28;20227;-78
2022/10/30 15:58:34;;;;;;;15.50;7.72;;;15.10;99.90;;;;;;5052941;28;20224;-81
2022/10/30 16:01:29;;;;;;;14.25;7.57;;;15.00;99.90;;;;;;5036343;28;20342;-82
2022/10/30 16:04:22;;;;;;;10.15;7.80;;;15.10;99.90;;;;;;5050081;28;20916;-81
2022/10/30 16:07:19;;;;;;;11.45;7.80;;;15.10;99.90;;;;;;5046663;28;20225;-80
2022/10/30 16:10:10;;;;;;;10.93;7.45;;;15.10;99.90;;;;;;5061249;28;20584;-81
2022/10/30 16:12:59;;;;;;;14.57;9.45;;;15.10;99.90;;;;;;5030765;28;20663;-81
2022/10/30 16:15:49;;;;;;;14.02;8.50;;;15.20;99.90;;;;;;5053290;28;20220;-81
2022/10/30 16:18:38;;;;;;;14.75;8.40;;;15.20;99.90;;;;;;5050410;28;20220;-81
2022/10/30 16:21:29;;;;;;;13.27;8.20;;;15.00;99.90;;;;;;5034025;28;20231;-80
2022/10/30 16:24:19;;;;;;;12.80;7.80;;;15.10;99.90;;;;;;5048001;28;20307;-81
2022/10/30 16:27:16;;;;;;;11.27;7.35;;;15.10;99.90;;;;;;5051737;28;20220;-81
2022/10/30 16:30:08;;;;;;;12.75;8.52;;;15.10;99.90;;;;;;5031933;28;20225;-81
2022/10/30 16:32:58;;;;;;;12.90;8.65;;;15.10;99.90;;;;;;5047284;28;20213;-79
2022/10/30 16:35:49;;;;;;;17.20;8.38;;;15.10;99.90;;;;;;5046283;28;20225;-81
2022/10/30 16:38:47;;;;;;;12.93;8.15;;;15.10;99.90;;;;;;5048093;28;20700;-81
2022/10/30 16:41:36;;;;;;;16.48;10.18;;;15.00;99.90;;;;;;5031662;28;20213;-81
2022/10/30 16:44:29;;;;;;;13.88;10.00;;;15.00;99.90;;;;;;5038735;28;20249;-82
2022/10/30 16:47:25;;;;;;;14.57;9.77;;;14.90;99.90;;;;;;5030350;28;20600;-82
2022/10/30 16:50:16;;;;;;;14.38;9.68;;;14.90;99.90;;;;;;5034012;28;20227;-80
2022/10/30 16:53:06;;;;;;;14.65;9.82;;;14.90;99.90;;;;;;5028812;28;21166;-81
2022/10/30 16:55:58;;;;;;;15.35;9.20;;;14.90;99.90;;;;;;5049749;28;20248;-81
2022/10/30 16:58:47;;;;;;;14.48;8.77;;;14.90;99.90;;;;;;5035700;28;20220;-82
2022/10/30 17:01:36;;;;;;;16.73;9.00;;;14.90;99.90;;;;;;5043717;28;20588;-83
2022/10/30 17:04:25;;;;;;;13.00;9.30;;;14.90;99.90;;;;;;5057693;28;20229;-86
2022/10/30 17:07:19;;;;;;;18.65;10.38;;;14.90;99.90;;;;;;5035748;28;20229;-81
2022/10/30 17:10:29;;;;;;;14.10;10.20;;;14.90;99.90;;;;;;5060240;28;20696;-81
2022/10/30 17:13:34;;;;;;;13.80;10.10;;;14.90;99.90;;;;;;5057905;28;20244;-80
2022/10/30 17:16:25;;;;;;;15.85;10.07;;;14.90;99.90;;;;;;5033004;28;20223;-81
2022/10/30 17:19:45;;;;;;;14.18;9.05;;;14.90;99.90;;;;;;5058844;28;20225;-81
2022/10/30 17:22:34;;;;;;;15.30;9.13;;;14.80;99.90;;;;;;5050118;28;20522;-81
2022/10/30 17:25:34;;;;;;;17.67;10.45;;;14.80;99.90;;;;;;5046075;28;20219;-79
2022/10/30 17:28:27;;;;;;;13.02;9.35;;;14.80;99.90;;;;;;5059721;28;20596;-81
2022/10/30 17:31:23;;;;;;;14.43;9.10;;;14.90;99.90;;;;;;5038123;28;20229;-81
2022/10/30 17:34:15;;;;;;;13.73;9.40;;;14.90;99.90;;;;;;5057266;28;20766;-81
2022/10/30 17:37:04;;;;;;;16.33;10.13;;;14.80;99.90;;;;;;5037642;28;20834;-81
2022/10/30 17:39:53;;;;;;;17.45;10.20;;;14.70;99.90;;;;;;5049981;28;20225;-81
2022/10/30 17:42:42;;;;;;;14.55;9.50;;;14.70;99.90;;;;;;5051133;28;20228;-81
2022/10/30 17:45:31;;;;;;;14.10;9.65;;;14.70;99.90;;;;;;5034272;28;20360;-82
2022/10/30 17:48:24;;;;;;;17.20;9.85;;;14.70;99.90;;;;;;5058713;28;20243;-81
2022/10/30 17:51:13;;;;;;;15.52;10.85;;;14.70;99.90;;;;;;5048046;28;20225;-82
2022/10/30 17:54:02;;;;;;;14.13;10.05;;;14.60;99.90;;;;;;5052578;28;20217;-81
2022/10/30 17:56:51;;;;;;;15.32;10.13;;;14.60;99.90;;;;;;5059299;28;20235;-81
2022/10/30 17:59:41;;;;;;;16.90;10.80;;;14.60;99.90;;;;;;5052774;28;20235;-81
2022/10/30 18:02:30;;;;;;;16.83;11.10;;;14.60;99.90;;;;;;5045619;28;20221;-82
2022/10/30 18:05:22;;;;;;;22.27;11.57;;;14.50;99.90;;;;;;5052689;28;20251;-82
2022/10/30 18:08:11;;;;;;;15.90;10.70;;;14.40;99.90;;;;;;5041535;28;20328;-81
2022/10/30 18:11:00;;;;;;;21.02;11.43;;;14.40;99.90;;;;;;5044292;28;20231;-82
2022/10/30 18:13:51;;;;;;;19.08;12.02;;;14.40;99.90;;;;;;5041001;28;20228;-77
2022/10/30 18:16:40;;;;;;;15.00;11.10;;;14.50;99.90;;;;;;5043765;28;20217;-81
2022/10/30 18:19:29;;;;;;;20.35;11.30;;;14.40;99.90;;;;;;5029306;28;20765;-81
2022/10/30 18:22:19;;;;;;;17.65;11.45;;;14.50;99.90;;;;;;5048161;28;20227;-81
2022/10/30 18:25:16;;;;;;;15.63;10.43;;;14.50;99.90;;;;;;5047006;28;20217;-81
2022/10/30 18:28:04;;;;;;;27.98;12.65;;;14.40;99.90;;;;;;5047113;28;20221;-81
2022/10/30 18:30:55;;;;;;;17.88;11.27;;;14.40;99.90;;;;;;5049142;28;20615;-81
2022/10/30 18:33:45;;;;;;;20.67;12.10;;;14.40;99.90;;;;;;5030522;28;20678;-80
2022/10/30 18:36:34;;;;;;;21.50;12.13;;;14.30;99.90;;;;;;5048869;28;20219;-81
2022/10/30 18:39:24;;;;;;;21.75;11.85;;;14.30;99.90;;;;;;5029330;28;20212;-80
2022/10/30 18:42:13;;;;;;;19.42;11.85;;;14.30;99.90;;;;;;5047214;28;20226;-79
2022/10/30 18:45:02;;;;;;;19.35;12.13;;;14.20;99.90;;;;;;5023680;28;20231;-81
2022/10/30 18:47:52;;;;;;;16.92;11.85;;;14.30;99.90;;;;;;5041776;28;20220;-80
2022/10/30 18:50:41;;;;;;;18.55;11.77;;;14.30;99.90;;;;;;5031535;28;20237;-81
2022/10/30 18:53:30;;;;;;;22.38;12.18;;;14.30;99.90;;;;;;5042896;28;20221;-81
2022/10/30 18:56:31;;;;;;;19.95;12.68;;;14.30;99.90;;;;;;5023402;28;20327;-80
2022/10/30 18:59:19;;;;;;;24.13;13.25;;;14.20;99.90;;;;;;5040516;28;20227;-81
2022/10/30 19:02:20;;;;;;;23.42;12.93;;;14.30;99.90;;;;;;5037185;28;20221;-82
2022/10/30 19:05:30;;;;;;;16.52;11.82;;;14.30;99.90;;;;;;5050711;28;20216;-81
2022/10/30 19:08:18;;;;;;;19.33;12.43;;;14.30;99.90;;;;;;5053485;28;20225;-82
2022/10/30 19:11:09;;;;;;;21.50;12.82;;;14.20;99.90;;;;;;5039309;28;20680;-79
2022/10/30 19:13:59;;;;;;;23.17;12.70;;;14.30;99.90;;;;;;5057081;28;20726;-80
2022/10/30 19:16:48;;;;;;;19.38;11.82;;;14.30;99.90;;;;;;5039481;28;20286;-80
2022/10/30 19:19:37;;;;;;;19.98;11.95;;;14.30;99.90;;;;;;5045356;28;20316;-81
2022/10/30 19:22:26;;;;;;;19.83;12.50;;;14.30;99.90;;;;;;5019914;28;20736;-81
2022/10/30 19:25:17;;;;;;;22.05;12.85;;;14.20;99.90;;;;;;5039782;28;20250;-80
2022/10/30 19:28:06;;;;;;;21.23;12.95;;;14.20;99.90;;;;;;5035893;28;20233;-82
2022/10/30 19:30:56;;;;;;;18.77;13.45;;;14.30;99.90;;;;;;5052661;28;20696;-81
2022/10/30 19:33:46;;;;;;;20.33;13.13;;;14.20;99.90;;;;;;5035580;28;20235;-82
2022/10/30 19:36:43;;;;;;;17.20;12.70;;;14.20;99.90;;;;;;5024246;28;20225;-82
2022/10/30 19:39:32;;;;;;;22.73;12.90;;;14.20;99.90;;;;;;5023178;28;20224;-82
2022/10/30 19:42:20;;;;;;;20.17;13.00;;;14.10;99.90;;;;;;5037962;28;20221;-82
2022/10/30 19:45:10;;;;;;;20.35;12.88;;;14.10;99.90;;;;;;5010796;28;20224;-82
2022/10/30 19:48:04;;;;;;;19.00;12.52;;;14.10;99.90;;;;;;5025243;28;20232;-82
2022/10/30 19:50:53;;;;;;;21.45;14.55;;;14.10;99.90;;;;;;5011108;28;20232;-82
2022/10/30 19:53:42;;;;;;;17.75;13.15;;;14.10;99.90;;;;;;5019924;28;20228;-83
2022/10/30 19:56:30;;;;;;;21.45;13.77;;;14.10;99.90;;;;;;5018262;28;20704;-82
2022/10/30 19:59:19;;;;;;;19.02;13.13;;;14.00;99.90;;;;;;5018405;28;20224;-82
2022/10/30 20:02:11;;;;;;;20.80;14.05;;;13.90;99.90;;;;;;5013690;28;20599;-83
2022/10/30 20:05:02;;;;;;;23.33;14.02;;;13.90;99.90;;;;;;5021458;28;20229;-82
2022/10/30 20:07:59;;;;;;;20.02;13.68;;;13.90;99.90;;;;;;5034975;28;20232;-81
2022/10/30 20:10:50;;;;;;;21.92;13.38;;;13.90;99.90;;;;;;5024426;28;20723;-80
2022/10/30 20:13:39;;;;;;;19.42;13.75;;;13.90;99.90;;;;;;5011826;28;20225;-80
2022/10/30 20:16:28;;;;;;;21.25;14.38;;;13.90;99.90;;;;;;5036791;28;20320;-80
2022/10/30 20:19:28;;;;;;;23.30;13.77;;;13.80;99.90;;;;;;5016728;28;20233;-80
2022/10/30 20:22:18;;;;;;;22.00;14.38;;;13.80;99.90;;;;;;5021195;28;20854;-84
2022/10/30 20:25:13;;;;;;;20.63;13.73;;;13.80;99.90;;;;;;5006495;28;20245;-81
2022/10/30 20:28:03;;;;;;;19.17;13.77;;;13.80;99.90;;;;;;5027673;28;20234;-85
2022/10/30 20:30:55;;;;;;;21.92;13.98;;;13.80;99.90;;;;;;5022475;28;20225;-86
2022/10/30 20:33:44;;;;;;;26.13;14.40;;;13.80;99.90;;;;;;5035744;28;20299;-86
2022/10/30 20:36:33;;;;;;;21.30;14.55;;;13.80;99.90;;;;;;5021325;28;20300;-85
2022/10/30 20:39:23;;;;;;;21.15;14.23;;;13.70;99.90;;;;;;5027211;28;20308;-85
2022/10/30 20:42:14;;;;;;;21.88;14.88;;;13.70;99.90;;;;;;5048568;28;20232;-83
2022/10/30 20:45:03;;;;;;;22.17;14.57;;;13.70;99.90;;;;;;5049903;28;20584;-85
2022/10/30 20:47:52;;;;;;;21.55;14.43;;;13.60;99.90;;;;;;5046438;28;20225;-86
2022/10/30 20:50:41;;;;;;;24.55;14.68;;;13.60;99.90;;;;;;5032096;28;20228;-86
2022/10/30 20:53:36;;;;;;;22.17;14.40;;;13.60;99.90;;;;;;5048141;28;20217;-86
2022/10/30 20:56:27;;;;;;;23.45;15.60;;;13.60;99.90;;;;;;5047820;28;20224;-87
2022/10/30 20:59:15;;;;;;;20.83;15.00;;;13.50;99.90;;;;;;5055611;28;20230;-86
2022/10/30 21:02:04;;;;;;;23.15;14.30;;;13.60;99.90;;;;;;5042637;28;20216;-87
2022/10/30 21:04:53;;;;;;;23.42;15.18;;;13.40;99.90;;;;;;5030475;28;20225;-86
2022/10/30 21:07:42;;;;;;;24.95;14.70;;;13.50;99.90;;;;;;5044113;28;20227;-84
2022/10/30 21:10:31;;;;;;;22.95;14.75;;;13.40;99.90;;;;;;5029674;28;20322;-86
2022/10/30 21:13:21;;;;;;;21.52;15.05;;;13.40;99.90;;;;;;5032645;28;20600;-86
2022/10/30 21:16:10;;;;;;;23.15;16.08;;;13.50;99.90;;;;;;5040916;28;20240;-84
2022/10/30 21:18:59;;;;;;;22.30;15.75;;;13.40;99.90;;;;;;5059447;28;20228;-87
2022/10/30 21:21:48;;;;;;;24.23;15.20;;;13.40;99.90;;;;;;5045672;28;20224;-86
2022/10/30 21:24:36;;;;;;;32.85;17.25;;;13.30;99.90;;;;;;5033498;28;20221;-85
2022/10/30 21:27:25;;;;;;;24.08;15.55;;;13.30;99.90;;;;;;5043117;28;20680;-87
2022/10/30 21:30:16;;;;;;;23.55;15.13;;;13.30;99.90;;;;;;5044058;28;20696;-87
2022/10/30 21:33:04;;;;;;;30.85;15.98;;;13.30;99.90;;;;;;5056342;28;20290;-86
2022/10/30 21:35:53;;;;;;;21.52;14.98;;;13.30;99.90;;;;;;5045886;28;20229;-86